Time;durP1;ratioP1;P1;durP2;ratioP2;P2;SDS_P1;SDS_P2;PMS_P1;PMS_P2;Temp;Humidity;BMP_temperature;BMP_pressure;BME280_temperature;BME280_humidity;BME280_pressure;Samples;Min_cycle;Max_cycle;Signal;HPM_P1;HPM_P2
2023/08/31 00:02:16;;;;;;;4.80;2.22;;;;;;;13.90;100.00;98308.06;4982155;28;20109;-51
2023/08/31 00:04:42;;;;;;;4.32;2.20;;;;;;;13.84;100.00;98311.75;4993794;28;20053;-51
2023/08/31 00:07:07;;;;;;;2.75;1.95;;;;;;;13.78;100.00;98318.94;4976636;28;20113;-51
2023/08/31 00:09:33;;;;;;;3.28;2.08;;;;;;;13.71;100.00;98307.38;4986790;28;20398;-51
2023/08/31 00:12:02;;;;;;;4.80;1.98;;;;;;;13.52;100.00;98312.91;4991146;28;20026;-52
2023/08/31 00:14:28;;;;;;;3.30;1.80;;;;;;;13.46;100.00;98307.56;4990143;28;20398;-51
2023/08/31 00:16:53;;;;;;;4.95;2.00;;;;;;;13.30;100.00;98307.19;4991345;28;20022;-51
2023/08/31 00:19:19;;;;;;;5.32;2.38;;;;;;;13.18;100.00;98302.75;4974784;28;20030;-51
2023/08/31 00:21:45;;;;;;;6.72;2.97;;;;;;;13.08;100.00;98297.91;4991135;28;20037;-51
2023/08/31 00:24:11;;;;;;;4.03;2.10;;;;;;;13.02;100.00;98302.38;4976111;28;20405;-51
2023/08/31 00:26:42;;;;;;;3.45;2.08;;;;;;;12.96;100.00;98308.72;4993898;28;20459;-52
2023/08/31 00:29:09;;;;;;;5.00;2.47;;;;;;;12.85;100.00;98299.47;5011833;23;20048;-75
2023/08/31 00:31:34;;;;;;;4.93;2.47;;;;;;;12.76;100.00;98300.03;5011744;28;20034;-75
2023/08/31 00:34:03;;;;;;;4.50;2.33;;;;;;;12.71;100.00;98312.41;5012053;28;20037;-74
2023/08/31 00:36:30;;;;;;;7.93;2.83;;;;;;;12.60;100.00;98312.34;5010131;28;20033;-74
2023/08/31 00:38:55;;;;;;;5.63;2.38;;;;;;;12.56;100.00;98309.25;5011645;28;20467;-74
2023/08/31 00:41:22;;;;;;;8.63;3.30;;;;;;;12.55;100.00;98312.19;4991767;28;20136;-74
2023/08/31 00:43:47;;;;;;;5.05;2.75;;;;;;;12.46;100.00;98317.09;5012870;28;20021;-73
2023/08/31 00:46:14;;;;;;;8.40;2.90;;;;;;;12.43;100.00;98328.41;5011563;28;20026;-74
2023/08/31 00:48:40;;;;;;;6.45;2.63;;;;;;;12.35;100.00;98331.44;4992545;28;20446;-74
2023/08/31 00:51:06;;;;;;;6.40;2.88;;;;;;;12.47;100.00;98332.31;5011545;28;20488;-73
2023/08/31 00:53:33;;;;;;;5.43;2.83;;;;;;;12.36;100.00;98338.50;4994330;28;20029;-73
2023/08/31 00:55:58;;;;;;;9.40;3.35;;;;;;;12.41;100.00;98342.19;5011683;28;20281;-75
2023/08/31 00:58:25;;;;;;;6.68;3.03;;;;;;;12.43;100.00;98348.25;5010547;28;20057;-75
2023/08/31 01:01:15;;;;;;;5.85;3.00;;;;;;;12.42;100.00;98346.59;5010878;28;20022;-75
2023/08/31 01:03:54;;;;;;;5.65;3.00;;;;;;;12.52;100.00;98343.31;5012204;28;20080;-74
2023/08/31 01:06:31;;;;;;;5.32;2.90;;;;;;;12.52;100.00;98343.31;5012018;28;20037;-75
2023/08/31 01:09:11;;;;;;;5.18;3.25;;;;;;;12.53;100.00;98342.28;5010128;28;20029;-74
2023/08/31 01:11:51;;;;;;;8.40;3.30;;;;;;;12.63;100.00;98353.44;5007663;28;20442;-75
2023/08/31 01:14:19;;;;;;;7.70;2.97;;;;;;;12.67;100.00;98340.22;5010895;28;20033;-75
2023/08/31 01:16:48;;;;;;;7.20;3.17;;;;;;;12.55;100.00;98332.03;5011451;28;20032;-74
2023/08/31 01:19:22;;;;;;;6.88;3.42;;;;;;;12.47;100.00;98333.19;5011230;28;20426;-74
2023/08/31 01:21:50;;;;;;;6.88;3.17;;;;;;;12.45;100.00;98342.59;4997692;28;20570;-75
2023/08/31 01:24:15;;;;;;;6.82;3.42;;;;;;;12.30;100.00;98326.69;5008605;28;20555;-74
2023/08/31 01:26:42;;;;;;;8.55;3.58;;;;;;;12.24;100.00;98327.59;4993111;28;20117;-74
2023/08/31 01:29:08;;;;;;;8.23;3.65;;;;;;;12.29;100.00;98341.31;4992156;28;20440;-74
2023/08/31 01:31:41;;;;;;;7.07;3.80;;;;;;;12.23;100.00;98339.50;5010216;28;20037;-74
2023/08/31 01:34:07;;;;;;;9.27;3.63;;;;;;;12.10;100.00;98334.22;5011406;28;20044;-74
2023/08/31 01:36:37;;;;;;;9.60;4.30;;;;;;;12.12;100.00;98341.06;5011089;28;20480;-74
2023/08/31 01:39:08;;;;;;;5.70;3.47;;;;;;;12.07;100.00;98352.56;4993625;28;20029;-74
2023/08/31 01:41:35;;;;;;;12.88;4.57;;;;;;;12.11;100.00;98347.56;4993699;28;20022;-75
2023/08/31 01:44:02;;;;;;;10.88;4.53;;;;;;;12.04;100.00;98353.03;5011560;28;20076;-74
2023/08/31 01:46:28;;;;;;;10.70;3.47;;;;;;;11.93;100.00;98353.78;5006215;28;20476;-74
2023/08/31 01:48:53;;;;;;;5.95;4.07;;;;;;;11.88;100.00;98356.31;4993424;28;20080;-74
2023/08/31 01:51:18;;;;;;;5.70;3.75;;;;;;;11.87;100.00;98357.38;4994581;28;20496;-74
2023/08/31 01:53:44;;;;;;;14.10;4.18;;;;;;;11.89;100.00;98368.81;5011417;28;20480;-73
2023/08/31 01:56:09;;;;;;;7.68;4.50;;;;;;;11.99;100.00;98379.16;4997461;28;20120;-75
2023/08/31 01:58:35;;;;;;;7.63;4.20;;;;;;;12.07;100.00;98370.72;5014634;28;20034;-75
2023/08/31 02:01:00;;;;;;;8.32;4.63;;;;;;;12.14;100.00;98368.78;5013648;28;20028;-75
2023/08/31 02:03:25;;;;;;;7.97;4.05;;;;;;;12.22;100.00;98371.22;5014780;28;20026;-74
2023/08/31 02:05:51;;;;;;;7.13;4.07;;;;;;;12.37;100.00;98383.59;5013663;28;21012;-74
2023/08/31 02:08:17;;;;;;;6.72;4.00;;;;;;;12.45;100.00;98375.97;5013348;28;20049;-76
2023/08/31 02:10:43;;;;;;;6.45;4.03;;;;;;;12.53;100.00;98384.88;5012980;28;20030;-75
2023/08/31 02:13:09;;;;;;;8.95;3.90;;;;;;;12.54;100.00;98372.97;5012953;28;20037;-74
2023/08/31 02:15:38;;;;;;;8.25;3.72;;;;;;;12.67;100.00;98383.66;4993837;28;20121;-74
2023/08/31 02:18:03;;;;;;;5.57;3.15;;;;;;;12.69;100.00;98376.94;5004683;28;20065;-75
2023/08/31 02:20:28;;;;;;;7.30;3.40;;;;;;;12.74;100.00;98376.28;5005272;28;20073;-76
2023/08/31 02:22:55;;;;;;;7.28;3.58;;;;;;;12.71;100.00;98365.88;5006532;28;20057;-74
2023/08/31 02:25:20;;;;;;;9.15;3.55;;;;;;;12.76;100.00;98374.16;5012116;28;20034;-74
2023/08/31 02:27:46;;;;;;;7.65;3.45;;;;;;;12.75;100.00;98363.53;4992454;28;20032;-74
2023/08/31 02:30:11;;;;;;;4.93;3.22;;;;;;;12.75;100.00;98374.38;5006560;28;20502;-73
2023/08/31 02:32:37;;;;;;;6.15;3.50;;;;;;;12.76;100.00;98370.59;5010061;28;20065;-74
2023/08/31 02:35:02;;;;;;;8.85;3.15;;;;;;;12.78;100.00;98382.88;4994114;28;20468;-74
2023/08/31 02:37:28;;;;;;;7.13;3.53;;;;;;;12.78;100.00;98379.34;4994802;28;20108;-74
2023/08/31 02:39:53;;;;;;;10.15;3.60;;;;;;;12.77;100.00;98372.28;4996235;28;20018;-74
2023/08/31 02:42:18;;;;;;;6.82;3.33;;;;;;;12.71;100.00;98372.13;5012021;28;20038;-77
2023/08/31 02:44:43;;;;;;;6.60;2.90;;;;;;;12.75;100.00;98377.91;5008680;28;20387;-75
2023/08/31 02:47:09;;;;;;;6.28;2.58;;;;;;;12.69;100.00;98376.13;5007875;28;20505;-77
2023/08/31 02:49:34;;;;;;;8.57;2.55;;;;;;;12.68;100.00;98374.44;5012092;28;20475;-76
2023/08/31 02:51:59;;;;;;;6.78;2.85;;;;;;;12.67;100.00;98367.38;4994035;28;20070;-76
2023/08/31 02:54:25;;;;;;;8.63;3.30;;;;;;;12.72;100.00;98372.94;4996568;28;20590;-76
2023/08/31 02:56:51;;;;;;;5.85;3.08;;;;;;;12.66;100.00;98369.25;4996196;28;20052;-75
2023/08/31 02:59:17;;;;;;;7.60;3.38;;;;;;;12.67;100.00;98372.78;5012085;28;20108;-73
2023/08/31 03:01:46;;;;;;;5.72;3.25;;;;;;;12.67;100.00;98372.78;5014048;28;20018;-73
2023/08/31 03:04:11;;;;;;;7.65;3.33;;;;;;;12.69;100.00;98378.84;5009892;28;20411;-75
2023/08/31 03:06:36;;;;;;;5.68;3.05;;;;;;;12.68;100.00;98383.44;4994921;28;20026;-74
2023/08/31 03:09:02;;;;;;;14.18;3.38;;;;;;;12.73;100.00;98382.72;5013919;28;20109;-74
2023/08/31 03:11:27;;;;;;;8.75;2.83;;;;;;;12.74;100.00;98384.41;5014756;28;20108;-75
2023/08/31 03:13:52;;;;;;;6.65;2.97;;;;;;;12.74;100.00;98378.97;5011662;28;20406;-76
2023/08/31 03:16:18;;;;;;;5.95;3.13;;;;;;;12.68;100.00;98371.72;4995591;28;20041;-75
2023/08/31 03:18:43;;;;;;;5.25;3.33;;;;;;;12.74;100.00;98368.13;5013932;28;20038;-76
2023/08/31 03:21:09;;;;;;;4.40;2.70;;;;;;;12.80;100.00;98382.66;5007263;28;20407;-75
2023/08/31 03:23:34;;;;;;;5.47;2.95;;;;;;;12.71;100.00;98368.59;4997100;28;20060;-76
2023/08/31 03:26:00;;;;;;;6.32;2.80;;;;;;;12.69;100.00;98379.66;4994565;28;20491;-76
2023/08/31 03:28:25;;;;;;;5.68;3.42;;;;;;;12.56;100.00;98370.84;5016432;28;20029;-77
2023/08/31 03:30:55;;;;;;;7.03;3.47;;;;;;;12.47;100.00;98360.31;4999034;28;20391;-74
2023/08/31 03:33:20;;;;;;;4.85;3.17;;;;;;;12.43;100.00;98372.66;5012493;28;20482;-76
2023/08/31 03:35:45;;;;;;;4.68;3.38;;;;;;;12.35;100.00;98389.22;5003945;28;20117;-74
2023/08/31 03:38:11;;;;;;;8.80;3.33;;;;;;;12.30;100.00;98399.94;5012785;28;20072;-74
2023/08/31 03:40:36;;;;;;;6.70;3.65;;;;;;;12.19;100.00;98409.63;5014106;28;20018;-75
2023/08/31 03:43:01;;;;;;;7.38;3.88;;;;;;;12.16;100.00;98398.41;5013258;28;20017;-74
2023/08/31 03:45:27;;;;;;;10.55;3.70;;;;;;;12.15;100.00;98394.03;4995647;28;20395;-73
2023/08/31 03:47:52;;;;;;;5.25;3.33;;;;;;;12.02;100.00;98384.13;5007505;28;20491;-74
2023/08/31 03:50:18;;;;;;;6.93;3.45;;;;;;;11.95;100.00;98392.34;5010266;28;20468;-73
2023/08/31 03:52:43;;;;;;;10.48;3.45;;;;;;;11.82;100.00;98395.13;5010983;28;20026;-76
2023/08/31 03:55:09;;;;;;;5.38;3.47;;;;;;;11.76;100.00;98404.13;5014237;28;20546;-76
2023/08/31 03:57:35;;;;;;;6.00;3.97;;;;;;;11.75;100.00;98408.72;5012947;28;20065;-76
2023/08/31 04:00:00;;;;;;;8.15;4.28;;;;;;;11.75;100.00;98403.31;4994378;28;20025;-74
2023/08/31 04:02:28;;;;;;;7.55;4.05;;;;;;;11.72;100.00;98409.19;5012428;28;20049;-80
2023/08/31 04:04:54;;;;;;;7.22;3.60;;;;;;;11.66;100.00;98407.34;4994928;28;21044;-77
2023/08/31 04:07:19;;;;;;;11.05;4.40;;;;;;;11.67;100.00;98416.31;5013725;28;20037;-77
2023/08/31 04:09:44;;;;;;;7.40;3.83;;;;;;;11.75;100.00;98418.75;4995403;28;20022;-75
2023/08/31 04:12:09;;;;;;;8.15;4.28;;;;;;;11.79;100.00;98430.81;5011666;28;20394;-75
2023/08/31 04:14:35;;;;;;;6.47;4.15;;;;;;;11.72;100.00;98421.91;5010635;28;20033;-75
2023/08/31 04:17:00;;;;;;;8.15;4.30;;;;;;;11.65;100.00;98408.38;5007228;28;20510;-75
2023/08/31 04:19:25;;;;;;;8.32;4.57;;;;;;;11.76;100.00;98425.81;5010664;28;20018;-75
2023/08/31 04:21:51;;;;;;;7.47;4.00;;;;;;;11.81;100.00;98420.56;4995491;28;20033;-77
2023/08/31 04:24:16;;;;;;;10.32;4.30;;;;;;;11.92;100.00;98428.03;4993091;28;20033;-76
2023/08/31 04:26:43;;;;;;;8.07;3.95;;;;;;;11.94;100.00;98442.16;4994591;28;20041;-76
2023/08/31 04:29:08;;;;;;;6.20;3.42;;;;;;;11.96;100.00;98431.13;5010630;28;20034;-74
2023/08/31 04:31:33;;;;;;;11.05;3.53;;;;;;;11.94;100.00;98438.63;4990071;28;20036;-74
2023/08/31 04:33:59;;;;;;;8.13;3.38;;;;;;;11.93;100.00;98437.81;5007384;28;20053;-77
2023/08/31 04:36:25;;;;;;;7.00;3.60;;;;;;;11.90;100.00;98427.41;5012045;28;20033;-77
2023/08/31 04:38:51;;;;;;;9.27;3.65;;;;;;;11.99;100.00;98450.47;4988365;28;20028;-79
2023/08/31 04:41:16;;;;;;;9.77;3.88;;;;;;;11.98;100.00;98446.13;5012102;28;20033;-76
2023/08/31 04:43:41;;;;;;;7.28;4.00;;;;;;;11.92;100.00;98443.44;5013902;28;20120;-77
2023/08/31 04:46:07;;;;;;;5.95;3.22;;;;;;;11.89;100.00;98457.44;4996169;28;20026;-76
2023/08/31 04:48:32;;;;;;;9.60;3.80;;;;;;;11.79;100.00;98450.63;5013795;28;20507;-71
2023/08/31 04:50:58;;;;;;;10.18;3.55;;;;;;;11.80;100.00;98448.72;5010608;28;20149;-76
2023/08/31 04:53:24;;;;;;;4.93;3.40;;;;;;;11.81;100.00;98450.38;5003447;28;20088;-76
2023/08/31 04:55:49;;;;;;;10.65;3.30;;;;;;;11.85;100.00;98465.16;5002089;28;20029;-75
2023/08/31 04:58:14;;;;;;;10.13;3.80;;;;;;;11.90;100.00;98464.53;5010767;28;20547;-75
2023/08/31 05:00:40;;;;;;;7.18;3.72;;;;;;;11.85;100.00;98452.44;5011705;28;20026;-79
2023/08/31 05:03:14;;;;;;;5.05;3.30;;;;;;;11.92;100.00;98465.97;5016876;28;20033;-83
2023/08/31 05:05:41;;;;;;;5.00;3.00;;;;;;;11.93;100.00;98451.38;5022873;23;20037;-64
2023/08/31 05:08:08;;;;;;;6.53;3.33;;;;;;;11.98;100.00;98454.25;5013972;28;20057;-64
2023/08/31 05:10:33;;;;;;;6.07;3.03;;;;;;;11.99;100.00;98466.75;5003416;28;20442;-64
2023/08/31 05:12:59;;;;;;;4.55;2.80;;;;;;;11.98;100.00;98467.81;5007890;28;20159;-64
2023/08/31 05:15:27;;;;;;;5.22;3.13;;;;;;;12.04;100.00;98469.63;5007195;28;20156;-64
2023/08/31 05:17:53;;;;;;;5.13;2.75;;;;;;;12.05;100.00;98465.88;4999115;28;20036;-64
2023/08/31 05:20:18;;;;;;;8.05;3.25;;;;;;;12.06;100.00;98455.84;5014132;28;20022;-63
2023/08/31 05:22:43;;;;;;;8.30;2.95;;;;;;;12.18;100.00;98464.94;4996457;28;20112;-63
2023/08/31 05:25:09;;;;;;;5.90;2.78;;;;;;;12.31;100.00;98465.84;5005380;28;20109;-63
2023/08/31 05:27:34;;;;;;;7.90;2.40;;;;;;;12.52;100.00;98456.47;5010442;28;20056;-63
2023/08/31 05:30:00;;;;;;;4.88;2.40;;;;;;;12.66;100.00;98452.56;5015050;28;20049;-63
2023/08/31 05:32:29;;;;;;;5.82;2.42;;;;;;;12.82;100.00;98449.25;5005981;28;20115;-63
2023/08/31 05:34:54;;;;;;;;;;;;;;;12.99;100.00;98445.91;5012369;28;20026;-64
2023/08/31 05:37:20;;;;;;;4.63;2.40;;;;;;;13.15;100.00;98453.44;5010975;28;19924;-64
2023/08/31 05:39:49;;;;;;;5.57;2.35;;;;;;;13.26;100.00;98447.28;5004013;28;20025;-64
2023/08/31 05:42:14;;;;;;;7.10;2.25;;;;;;;13.98;100.00;98454.59;5009269;28;20057;-64
2023/08/31 05:44:39;;;;;;;7.20;2.13;;;;;;;14.78;100.00;98432.25;5029068;28;20072;-64
2023/08/31 05:47:05;;;;;;;4.53;2.03;;;;;;;15.20;100.00;98433.94;5005696;28;20115;-64
2023/08/31 05:49:30;;;;;;;5.80;2.10;;;;;;;15.16;100.00;98421.84;5002818;28;20053;-65
2023/08/31 05:51:55;;;;;;;4.85;1.88;;;;;;;14.76;100.00;98431.66;5007519;28;20041;-65
2023/08/31 05:54:21;;;;;;;5.93;2.13;;;;;;;14.13;100.00;98440.53;5004548;28;20026;-65
2023/08/31 05:56:47;;;;;;;8.20;2.40;;;;;;;13.72;100.00;98453.94;4997669;28;20460;-65
2023/08/31 05:59:13;;;;;;;10.50;2.28;;;;;;;13.59;100.00;98460.38;5020618;28;20359;-64
2023/08/31 06:01:39;;;;;;;7.00;2.35;;;;;;;13.69;100.00;98468.00;5010297;28;20030;-65
2023/08/31 06:04:05;;;;;;;7.47;2.30;;;;;;;13.71;100.00;98471.31;5031687;28;20025;-59
2023/08/31 06:06:32;;;;;;;4.60;2.45;;;;;;;13.53;100.00;98464.03;5010435;28;20064;-58
2023/08/31 06:08:58;;;;;;;4.68;2.03;;;;;;;13.21;100.00;98466.13;5007181;28;20465;-59
2023/08/31 06:11:23;;;;;;;6.07;2.00;;;;;;;13.35;100.00;98473.06;5009939;28;20120;-58
2023/08/31 06:13:48;;;;;;;3.15;1.90;;;;;;;13.42;100.00;98470.28;5011032;28;20026;-58
2023/08/31 06:16:14;;;;;;;4.85;2.20;;;;;;;13.64;100.00;98481.44;5012084;28;20393;-58
2023/08/31 06:18:39;;;;;;;3.17;2.00;;;;;;;14.02;100.00;98478.38;5016964;28;20645;-58
2023/08/31 06:21:05;;;;;;;5.85;2.08;;;;;;;14.03;100.00;98469.13;5012331;28;20417;-58
2023/08/31 06:23:30;;;;;;;4.28;2.08;;;;;;;13.78;100.00;98476.63;5013455;28;20065;-58
2023/08/31 06:25:56;;;;;;;4.35;2.08;;;;;;;13.64;100.00;98486.88;5011157;28;20045;-58
2023/08/31 06:28:22;;;;;;;3.42;1.98;;;;;;;13.63;100.00;98496.13;5012003;28;20026;-58
2023/08/31 06:30:48;;;;;;;5.45;2.20;;;;;;;14.53;100.00;98503.28;5020544;28;20078;-58
2023/08/31 06:33:14;;;;;;;4.18;1.60;;;;;;;18.98;100.00;98452.38;5011867;28;20083;-58
2023/08/31 06:35:40;;;;;;;2.97;1.60;;;;;;;23.75;100.00;98438.13;5013012;28;20365;-58
2023/08/31 06:38:05;;;;;;;4.20;1.38;;;;;;;24.94;91.73;98440.56;5012514;28;20026;-59
2023/08/31 06:40:31;;;;;;;4.50;1.33;;;;;;;25.23;92.73;98454.13;5012351;28;20029;-58
2023/08/31 06:42:56;;;;;;;5.57;1.35;;;;;;;26.04;83.21;98449.88;5014201;28;20071;-58
2023/08/31 06:45:22;;;;;;;6.15;1.70;;;;;;;25.12;89.83;98459.00;5010602;28;20033;-58
2023/08/31 06:47:47;;;;;;;3.92;1.70;;;;;;;21.84;100.00;98469.84;5009693;28;20052;-58
2023/08/31 06:50:13;;;;;;;5.30;1.60;;;;;;;20.44;100.00;98475.22;5015075;28;20441;-59
2023/08/31 06:52:41;;;;;;;4.82;1.65;;;;;;;19.74;100.00;98480.38;5002631;28;20384;-57
2023/08/31 06:55:06;;;;;;;3.08;1.30;;;;;;;18.97;100.00;98480.06;5006843;28;20025;-57
2023/08/31 06:57:32;;;;;;;3.40;1.40;;;;;;;17.44;100.00;98487.72;5010532;28;20037;-59
2023/08/31 06:59:57;;;;;;;5.13;1.70;;;;;;;16.71;100.00;98493.28;5022081;28;20393;-57
2023/08/31 07:02:26;;;;;;;7.80;2.10;;;;;;;16.60;100.00;98492.31;5005836;28;20022;-57
2023/08/31 07:04:52;;;;;;;6.07;1.95;;;;;;;16.31;100.00;98494.31;5005057;28;20026;-58
2023/08/31 07:07:18;;;;;;;5.28;1.55;;;;;;;16.25;100.00;98492.59;5006025;28;20040;-57
2023/08/31 07:09:44;;;;;;;3.70;1.67;;;;;;;16.52;100.00;98483.72;5006558;28;20172;-57
2023/08/31 07:12:10;;;;;;;3.78;1.90;;;;;;;16.94;100.00;98488.72;5013764;28;20036;-57
2023/08/31 07:14:35;;;;;;;3.22;1.50;;;;;;;16.90;100.00;98487.56;5013747;28;20037;-63
2023/08/31 07:17:01;;;;;;;4.13;1.77;;;;;;;16.73;100.00;98491.13;5010628;28;20798;-64
2023/08/31 07:19:27;;;;;;;3.75;1.60;;;;;;;16.70;100.00;98497.09;5001895;28;20032;-63
2023/08/31 07:21:54;;;;;;;3.65;1.75;;;;;;;16.79;100.00;98500.25;5010110;28;20038;-63
2023/08/31 07:24:21;;;;;;;6.40;1.85;;;;;;;17.15;100.00;98493.38;5008209;28;20060;-63
2023/08/31 07:26:46;;;;;;;6.78;1.50;;;;;;;17.82;100.00;98488.72;5012832;28;20044;-64
2023/08/31 07:29:11;;;;;;;8.48;1.50;;;;;;;17.79;100.00;98494.66;5000678;28;20029;-64
2023/08/31 07:31:37;;;;;;;4.55;1.40;;;;;;;17.93;100.00;98504.16;5013239;28;20038;-64
2023/08/31 07:34:03;;;;;;;5.32;1.65;;;;;;;18.06;100.00;98495.53;5013246;28;20021;-68
2023/08/31 07:36:29;;;;;;;5.70;1.70;;;;;;;18.51;100.00;98513.44;5018699;28;20028;-74
2023/08/31 07:38:55;;;;;;;7.60;1.90;;;;;;;19.52;100.00;98511.59;5009592;28;20028;-64
2023/08/31 07:41:20;;;;;;;6.55;2.50;;;;;;;21.55;100.00;98517.34;5011952;28;20108;-63
2023/08/31 07:43:46;;;;;;;4.95;1.50;;;;;;;21.77;100.00;98518.88;5015444;28;20108;-64
2023/08/31 07:46:11;;;;;;;5.50;1.80;;;;;;;20.92;100.00;98533.47;5006757;28;20058;-63
2023/08/31 07:48:36;;;;;;;5.57;1.58;;;;;;;20.12;100.00;98525.75;4996686;28;20037;-63
2023/08/31 07:51:03;;;;;;;4.07;1.40;;;;;;;20.42;100.00;98518.63;5006442;28;20041;-63
2023/08/31 07:53:28;;;;;;;7.05;1.27;;;;;;;20.48;100.00;98523.03;5013626;28;20034;-64
2023/08/31 07:55:56;;;;;;;6.60;1.27;;;;;;;20.93;100.00;98522.22;5014836;28;20037;-63
2023/08/31 07:58:22;;;;;;;3.90;1.52;;;;;;;21.37;100.00;98526.19;5007698;28;20037;-63
2023/08/31 08:00:48;;;;;;;4.70;1.45;;;;;;;21.79;100.00;98522.19;5007666;28;20084;-57
2023/08/31 08:03:13;;;;;;;4.95;1.30;;;;;;;22.36;100.00;98515.22;5016889;28;20428;-57
2023/08/31 08:05:40;;;;;;;3.55;1.20;;;;;;;25.19;100.00;98524.28;5014023;28;20027;-57
2023/08/31 08:08:05;;;;;;;4.20;1.00;;;;;;;26.00;90.53;98517.03;5009231;28;20043;-57
2023/08/31 08:10:31;;;;;;;4.38;1.00;;;;;;;26.69;86.39;98510.44;5007114;28;20469;-64
2023/08/31 08:12:56;;;;;;;4.53;1.05;;;;;;;28.88;74.47;98513.41;5016596;28;20041;-64
2023/08/31 08:15:22;;;;;;;3.67;1.10;;;;;;;27.07;71.81;98524.69;5013108;28;20022;-64
2023/08/31 08:17:48;;;;;;;4.85;1.40;;;;;;;26.01;75.74;98527.00;5028980;28;20056;-64
2023/08/31 08:20:13;;;;;;;5.70;1.10;;;;;;;23.98;83.67;98526.78;5010480;28;20366;-64
2023/08/31 08:22:40;;;;;;;3.45;1.10;;;;;;;22.93;88.71;98523.84;5014452;28;20108;-64
2023/08/31 08:25:06;;;;;;;6.65;1.27;;;;;;;23.57;86.20;98521.75;5012050;28;20033;-63
2023/08/31 08:27:32;;;;;;;6.45;1.00;;;;;;;23.20;83.54;98523.31;5015431;28;20060;-64
2023/08/31 08:30:01;;;;;;;4.55;1.40;;;;;;;22.06;93.94;98532.75;5010395;28;20033;-64
2023/08/31 08:32:26;;;;;;;4.70;1.40;;;;;;;22.16;100.00;98527.19;5009808;28;20048;-64
2023/08/31 08:34:52;;;;;;;4.90;1.30;;;;;;;22.04;100.00;98530.31;5014621;28;20022;-64
2023/08/31 08:37:17;;;;;;;3.58;1.35;;;;;;;22.51;100.00;98534.41;5014502;28;20029;-64
2023/08/31 08:39:43;;;;;;;2.28;1.20;;;;;;;20.64;100.00;98537.63;5007592;28;20017;-64
2023/08/31 08:42:10;;;;;;;3.70;1.25;;;;;;;21.22;100.00;98530.66;5007364;28;20465;-64
2023/08/31 08:44:36;;;;;;;4.32;1.33;;;;;;;22.15;100.00;98541.28;5010124;28;20075;-64
2023/08/31 08:47:02;;;;;;;3.67;1.20;;;;;;;21.60;100.00;98550.38;5013265;28;20017;-65
2023/08/31 08:49:30;;;;;;;3.03;1.23;;;;;;;22.33;96.10;98537.88;5011701;28;20030;-65
2023/08/31 08:51:56;;;;;;;3.78;1.48;;;;;;;24.56;82.51;98537.53;5001392;28;20492;-65
2023/08/31 08:54:24;;;;;;;4.15;1.15;;;;;;;26.50;74.99;98527.25;5009521;28;20033;-65
2023/08/31 08:56:50;;;;;;;4.72;1.15;;;;;;;25.86;71.72;98535.69;5003296;28;20060;-64
2023/08/31 08:59:16;;;;;;;3.90;1.02;;;;;;;24.51;72.21;98545.91;5011231;28;20415;-57
2023/08/31 09:01:42;;;;;;;7.97;1.30;;;;;;;24.23;72.86;98547.69;5009294;28;20021;-58
2023/08/31 09:04:09;;;;;;;5.90;1.45;;;;;;;25.01;76.47;98542.56;5002422;28;20057;-58
2023/08/31 09:06:35;;;;;;;4.22;0.98;;;;;;;22.80;81.99;98547.41;5011159;28;20382;-58
2023/08/31 09:09:00;;;;;;;4.25;1.27;;;;;;;23.36;85.75;98544.09;5008683;28;20024;-57
2023/08/31 09:11:26;;;;;;;3.25;1.10;;;;;;;22.23;91.27;98559.97;5013069;28;20481;-57
2023/08/31 09:13:52;;;;;;;4.78;1.30;;;;;;;21.76;91.24;98561.31;5012417;28;20022;-57
2023/08/31 09:16:28;;;;;;;2.53;0.98;;;;;;;21.11;100.00;98553.78;5011053;28;20070;-57
2023/08/31 09:18:55;;;;;;;4.45;1.20;;;;;;;22.28;91.59;98548.94;5004992;28;20013;-57
2023/08/31 09:21:21;;;;;;;6.18;1.42;;;;;;;21.71;84.35;98559.41;5014297;28;20033;-57
2023/08/31 09:23:59;;;;;;;5.97;1.42;;;;;;;23.94;75.63;98564.41;5004971;28;20075;-57
2023/08/31 09:26:25;;;;;;;3.05;0.93;;;;;;;26.01;68.99;98560.25;5006022;28;20121;-57
2023/08/31 09:28:51;;;;;;;5.68;1.50;;;;;;;23.95;70.22;98555.00;5010207;28;20532;-57
2023/08/31 09:31:17;;;;;;;3.13;1.05;;;;;;;24.42;69.10;98569.81;5010381;28;20469;-57
2023/08/31 09:33:52;;;;;;;6.93;0.90;;;;;;;22.99;74.51;98572.38;5005259;28;20056;-59
2023/08/31 09:36:19;;;;;;;2.90;1.08;;;;;;;22.06;80.64;98572.19;5004504;28;20120;-57
2023/08/31 09:38:45;;;;;;;3.67;1.02;;;;;;;22.49;74.44;98566.97;5003921;28;20037;-57
2023/08/31 09:41:11;;;;;;;2.63;1.15;;;;;;;24.43;69.09;98565.91;5008664;28;20025;-57
2023/08/31 09:43:36;;;;;;;5.13;1.48;;;;;;;23.57;70.75;98552.94;5009604;28;20038;-57
2023/08/31 09:46:03;;;;;;;3.42;1.13;;;;;;;21.95;74.32;98570.56;5013778;28;20021;-57
2023/08/31 09:48:29;;;;;;;3.22;1.08;;;;;;;23.99;71.30;98556.03;5000711;28;20477;-57
2023/08/31 09:50:56;;;;;;;6.53;1.45;;;;;;;26.49;64.90;98558.91;5007892;28;20040;-57
2023/08/31 09:53:23;;;;;;;5.82;1.10;;;;;;;29.67;57.11;98555.78;5016428;28;20032;-57
2023/08/31 09:55:52;;;;;;;5.93;1.23;;;;;;;31.52;50.44;98565.88;5013766;28;20079;-57
2023/08/31 09:58:19;;;;;;;3.17;1.25;;;;;;;33.11;47.16;98556.38;5011326;28;20029;-57
2023/08/31 10:00:46;;;;;;;2.50;1.07;;;;;;;31.30;45.43;98565.13;5007650;28;20064;-58
2023/08/31 10:03:14;;;;;;;2.25;1.10;;;;;;;31.48;47.31;98560.19;5011865;28;20037;-57
2023/08/31 10:05:40;;;;;;;4.33;1.50;;;;;;;30.09;46.28;98569.81;5014112;28;20453;-58
2023/08/31 10:08:07;;;;;;;2.70;1.10;;;;;;;32.40;45.19;98560.72;5015392;28;20387;-58
2023/08/31 10:10:33;;;;;;;2.90;0.88;;;;;;;33.70;45.09;98555.53;5010574;28;20518;-58
2023/08/31 10:12:59;;;;;;;4.38;1.15;;;;;;;34.32;41.36;98560.56;5024093;28;20351;-58
2023/08/31 10:15:30;;;;;;;3.05;1.20;;;;;;;36.46;40.09;98555.19;5008755;28;20583;-58
2023/08/31 10:17:55;;;;;;;4.03;1.20;;;;;;;38.13;37.67;98551.69;5024125;28;20053;-58
2023/08/31 10:20:21;;;;;;;2.97;1.13;;;;;;;36.09;36.72;98553.09;5002519;28;20548;-58
2023/08/31 10:22:46;;;;;;;5.25;0.90;;;;;;;36.19;38.62;98549.63;5012012;28;20029;-58
2023/08/31 10:25:12;;;;;;;1.75;1.00;;;;;;;31.34;39.92;98559.69;5011998;28;20037;-58
2023/08/31 10:27:50;;;;;;;3.70;1.23;;;;;;;29.91;42.54;98564.31;5005128;28;20421;-57
2023/08/31 10:30:21;;;;;;;2.88;1.27;;;;;;;26.76;48.56;98562.72;5028502;28;20029;-57
2023/08/31 10:33:07;;;;;;;3.42;1.17;;;;;;;26.17;50.92;98560.75;5028009;28;20398;-57
2023/08/31 10:35:49;;;;;;;4.03;1.15;;;;;;;23.32;52.47;98567.91;5002677;28;20057;-57
2023/08/31 10:38:15;;;;;;;2.40;0.90;;;;;;;27.97;46.52;98552.19;5012621;28;20025;-57
2023/08/31 10:40:41;;;;;;;5.22;1.20;;;;;;;27.09;47.57;98558.53;5012198;28;20092;-57
2023/08/31 10:43:16;;;;;;;6.30;1.30;;;;;;;22.64;52.74;98551.41;5003717;28;20029;-57
2023/08/31 10:45:45;;;;;;;3.90;1.17;;;;;;;23.41;53.75;98549.56;5008797;28;20029;-60
2023/08/31 10:48:11;;;;;;;4.05;1.15;;;;;;;27.11;49.11;98549.88;5017493;28;20029;-57
2023/08/31 10:50:47;;;;;;;2.78;1.20;;;;;;;28.76;45.38;98557.81;5003680;28;20026;-57
2023/08/31 10:53:12;;;;;;;3.30;0.98;;;;;;;33.09;42.68;98550.31;5029944;28;20030;-57
2023/08/31 10:55:52;;;;;;;4.30;1.52;;;;;;;31.10;40.61;98552.88;5021051;28;20095;-58
2023/08/31 10:58:17;;;;;;;3.30;0.90;;;;;;;31.77;40.10;98549.94;5010898;28;20036;-58
2023/08/31 11:00:50;;;;;;;5.53;1.70;;;;;;;35.03;37.03;98555.63;5012769;28;20022;-58
2023/08/31 11:03:15;;;;;;;1.75;1.10;;;;;;;33.09;37.74;98537.13;5013614;28;20512;-58
2023/08/31 11:05:52;;;;;;;2.40;1.00;;;;;;;29.77;39.64;98549.00;5015204;28;20052;-58
2023/08/31 11:08:22;;;;;;;3.22;1.23;;;;;;;25.92;44.63;98558.56;5015542;28;20036;-58
2023/08/31 11:10:48;;;;;;;3.03;1.10;;;;;;;25.82;47.15;98559.56;5022649;28;20036;-58
2023/08/31 11:13:19;;;;;;;3.83;1.20;;;;;;;26.30;46.20;98549.91;5006673;28;20033;-58
2023/08/31 11:15:48;;;;;;;4.10;1.20;;;;;;;26.74;45.59;98549.16;5012200;28;20470;-58
2023/08/31 11:18:17;;;;;;;4.97;1.60;;;;;;;30.27;41.72;98551.81;5007141;28;20037;-58
2023/08/31 11:20:43;;;;;;;4.38;1.45;;;;;;;33.20;39.05;98540.22;5004458;28;20489;-58
2023/08/31 11:23:08;;;;;;;3.80;1.10;;;;;;;31.33;38.82;98538.47;5011621;28;20056;-58
2023/08/31 11:25:34;;;;;;;4.97;1.30;;;;;;;26.12;44.19;98547.00;5013739;28;20049;-62